sensor_id;sensor_type;location;lat;lon;timestamp;P1;durP1;ratioP1;P2;durP2;ratioP2
10403;SDS011;5248;47.374;8.486;2023-07-13T00:00:25;3.90;;;3.53;;
10403;SDS011;5248;47.374;8.486;2023-07-13T00:02:53;5.13;;;3.63;;
10403;SDS011;5248;47.374;8.486;2023-07-13T00:05:20;4.28;;;3.88;;
10403;SDS011;5248;47.374;8.486;2023-07-13T00:07:46;4.35;;;3.53;;
10403;SDS011;5248;47.374;8.486;2023-07-13T00:10:13;4.00;;;3.65;;
10403;SDS011;5248;47.374;8.486;2023-07-13T00:12:41;3.50;;;3.20;;
10403;SDS011;5248;47.374;8.486;2023-07-13T00:15:11;4.80;;;3.60;;
10403;SDS011;5248;47.374;8.486;2023-07-13T00:17:41;5.22;;;3.50;;
10403;SDS011;5248;47.374;8.486;2023-07-13T00:20:11;4.55;;;3.53;;
10403;SDS011;5248;47.374;8.486;2023-07-13T00:22:38;4.13;;;3.70;;
10403;SDS011;5248;47.374;8.486;2023-07-13T00:25:05;4.78;;;3.58;;
10403;SDS011;5248;47.374;8.486;2023-07-13T00:27:34;4.25;;;3.67;;
10403;SDS011;5248;47.374;8.486;2023-07-13T00:30:01;3.97;;;3.28;;
10403;SDS011;5248;47.374;8.486;2023-07-13T00:32:28;4.78;;;3.53;;
10403;SDS011;5248;47.374;8.486;2023-07-13T00:34:55;3.83;;;3.53;;
10403;SDS011;5248;47.374;8.486;2023-07-13T00:37:26;6.32;;;3.58;;
10403;SDS011;5248;47.374;8.486;2023-07-13T00:39:53;4.88;;;3.17;;
10403;SDS011;5248;47.374;8.486;2023-07-13T00:42:19;3.63;;;3.33;;
10403;SDS011;5248;47.374;8.486;2023-07-13T00:45:04;4.00;;;3.20;;
10403;SDS011;5248;47.374;8.486;2023-07-13T00:47:33;6.25;;;3.42;;
10403;SDS011;5248;47.374;8.486;2023-07-13T00:50:01;7.00;;;3.60;;
10403;SDS011;5248;47.374;8.486;2023-07-13T00:52:34;3.90;;;3.28;;
10403;SDS011;5248;47.374;8.486;2023-07-13T00:55:02;3.53;;;3.15;;
10403;SDS011;5248;47.374;8.486;2023-07-13T00:57:29;3.95;;;3.58;;
10403;SDS011;5248;47.374;8.486;2023-07-13T00:59:58;3.42;;;3.20;;
10403;SDS011;5248;47.374;8.486;2023-07-13T01:02:31;6.00;;;3.42;;
10403;SDS011;5248;47.374;8.486;2023-07-13T01:04:58;3.70;;;3.40;;
10403;SDS011;5248;47.374;8.486;2023-07-13T01:07:27;2.90;;;2.70;;
10403;SDS011;5248;47.374;8.486;2023-07-13T01:09:56;5.40;;;3.50;;
10403;SDS011;5248;47.374;8.486;2023-07-13T01:12:25;5.57;;;3.10;;
10403;SDS011;5248;47.374;8.486;2023-07-13T01:14:56;3.50;;;3.20;;
10403;SDS011;5248;47.374;8.486;2023-07-13T01:17:25;3.63;;;2.80;;
10403;SDS011;5248;47.374;8.486;2023-07-13T01:19:52;4.07;;;3.35;;
10403;SDS011;5248;47.374;8.486;2023-07-13T01:22:20;3.42;;;3.17;;
10403;SDS011;5248;47.374;8.486;2023-07-13T01:24:50;3.33;;;3.03;;
10403;SDS011;5248;47.374;8.486;2023-07-13T01:27:17;3.10;;;2.90;;
10403;SDS011;5248;47.374;8.486;2023-07-13T01:29:48;7.60;;;3.10;;
10403;SDS011;5248;47.374;8.486;2023-07-13T01:32:17;3.30;;;3.00;;
10403;SDS011;5248;47.374;8.486;2023-07-13T01:34:49;3.33;;;3.03;;
10403;SDS011;5248;47.374;8.486;2023-07-13T01:37:15;2.92;;;2.72;;
10403;SDS011;5248;47.374;8.486;2023-07-13T01:39:43;3.63;;;3.30;;
10403;SDS011;5248;47.374;8.486;2023-07-13T01:42:10;3.92;;;3.42;;
10403;SDS011;5248;47.374;8.486;2023-07-13T01:44:36;5.05;;;3.63;;
10403;SDS011;5248;47.374;8.486;2023-07-13T01:47:03;7.00;;;3.40;;
10403;SDS011;5248;47.374;8.486;2023-07-13T01:49:30;3.92;;;2.95;;
10403;SDS011;5248;47.374;8.486;2023-07-13T01:51:56;3.83;;;3.33;;
10403;SDS011;5248;47.374;8.486;2023-07-13T01:54:25;3.58;;;3.22;;
10403;SDS011;5248;47.374;8.486;2023-07-13T01:56:55;4.55;;;3.13;;
10403;SDS011;5248;47.374;8.486;2023-07-13T01:59:22;3.33;;;3.03;;
10403;SDS011;5248;47.374;8.486;2023-07-13T02:01:48;3.42;;;3.20;;
10403;SDS011;5248;47.374;8.486;2023-07-13T02:04:15;3.63;;;3.33;;
10403;SDS011;5248;47.374;8.486;2023-07-13T02:06:41;4.07;;;3.42;;
10403;SDS011;5248;47.374;8.486;2023-07-13T02:09:08;4.03;;;3.25;;
10403;SDS011;5248;47.374;8.486;2023-07-13T02:11:35;3.85;;;3.08;;
10403;SDS011;5248;47.374;8.486;2023-07-13T02:14:06;3.15;;;2.88;;
10403;SDS011;5248;47.374;8.486;2023-07-13T02:16:32;3.05;;;2.85;;
10403;SDS011;5248;47.374;8.486;2023-07-13T02:18:59;2.72;;;2.53;;
10403;SDS011;5248;47.374;8.486;2023-07-13T02:21:25;3.20;;;3.00;;
10403;SDS011;5248;47.374;8.486;2023-07-13T02:23:52;3.00;;;2.80;;
10403;SDS011;5248;47.374;8.486;2023-07-13T02:26:19;3.72;;;2.60;;
10403;SDS011;5248;47.374;8.486;2023-07-13T02:28:45;3.85;;;2.67;;
10403;SDS011;5248;47.374;8.486;2023-07-13T02:31:14;3.45;;;3.13;;
10403;SDS011;5248;47.374;8.486;2023-07-13T02:33:41;3.67;;;2.85;;
10403;SDS011;5248;47.374;8.486;2023-07-13T02:36:10;6.18;;;3.28;;
10403;SDS011;5248;47.374;8.486;2023-07-13T02:38:37;6.13;;;3.13;;
10403;SDS011;5248;47.374;8.486;2023-07-13T02:41:03;3.65;;;3.17;;
10403;SDS011;5248;47.374;8.486;2023-07-13T02:43:30;5.05;;;3.45;;
10403;SDS011;5248;47.374;8.486;2023-07-13T02:45:58;3.78;;;3.33;;
10403;SDS011;5248;47.374;8.486;2023-07-13T02:48:30;6.88;;;2.97;;
10403;SDS011;5248;47.374;8.486;2023-07-13T02:50:57;3.35;;;3.05;;
10403;SDS011;5248;47.374;8.486;2023-07-13T02:53:24;3.42;;;3.13;;
10403;SDS011;5248;47.374;8.486;2023-07-13T02:55:53;2.97;;;2.78;;
10403;SDS011;5248;47.374;8.486;2023-07-13T02:58:19;3.50;;;3.17;;
10403;SDS011;5248;47.374;8.486;2023-07-13T03:00:46;3.97;;;3.42;;
10403;SDS011;5248;47.374;8.486;2023-07-13T03:03:13;3.20;;;2.90;;
10403;SDS011;5248;47.374;8.486;2023-07-13T03:05:42;4.07;;;3.40;;
10403;SDS011;5248;47.374;8.486;2023-07-13T03:08:15;3.28;;;3.08;;
10403;SDS011;5248;47.374;8.486;2023-07-13T03:10:41;6.53;;;2.50;;
10403;SDS011;5248;47.374;8.486;2023-07-13T03:13:08;3.10;;;2.72;;
10403;SDS011;5248;47.374;8.486;2023-07-13T03:15:34;2.80;;;2.58;;
10403;SDS011;5248;47.374;8.486;2023-07-13T03:18:00;3.33;;;2.97;;
10403;SDS011;5248;47.374;8.486;2023-07-13T03:20:28;3.22;;;2.90;;
10403;SDS011;5248;47.374;8.486;2023-07-13T03:22:55;5.03;;;2.75;;
10403;SDS011;5248;47.374;8.486;2023-07-13T03:25:22;4.22;;;3.00;;
10403;SDS011;5248;47.374;8.486;2023-07-13T03:27:48;2.63;;;2.45;;
10403;SDS011;5248;47.374;8.486;2023-07-13T03:30:15;3.00;;;2.80;;
10403;SDS011;5248;47.374;8.486;2023-07-13T03:32:42;3.10;;;2.83;;
10403;SDS011;5248;47.374;8.486;2023-07-13T03:35:09;3.60;;;3.00;;
10403;SDS011;5248;47.374;8.486;2023-07-13T03:37:38;3.03;;;2.83;;
10403;SDS011;5248;47.374;8.486;2023-07-13T03:40:09;6.95;;;2.97;;
10403;SDS011;5248;47.374;8.486;2023-07-13T03:42:38;3.20;;;3.00;;
10403;SDS011;5248;47.374;8.486;2023-07-13T03:45:06;2.95;;;2.75;;
10403;SDS011;5248;47.374;8.486;2023-07-13T03:47:34;4.78;;;3.10;;
10403;SDS011;5248;47.374;8.486;2023-07-13T03:50:00;3.05;;;2.75;;
10403;SDS011;5248;47.374;8.486;2023-07-13T03:52:27;4.50;;;2.92;;
10403;SDS011;5248;47.374;8.486;2023-07-13T03:54:54;3.17;;;2.85;;
10403;SDS011;5248;47.374;8.486;2023-07-13T03:57:22;3.40;;;3.10;;
10403;SDS011;5248;47.374;8.486;2023-07-13T03:59:51;3.28;;;2.97;;
10403;SDS011;5248;47.374;8.486;2023-07-13T04:02:18;3.28;;;2.97;;
10403;SDS011;5248;47.374;8.486;2023-07-13T04:04:44;3.30;;;2.95;;
10403;SDS011;5248;47.374;8.486;2023-07-13T04:07:11;3.60;;;2.95;;
10403;SDS011;5248;47.374;8.486;2023-07-13T04:09:37;5.30;;;3.10;;
10403;SDS011;5248;47.374;8.486;2023-07-13T04:12:04;4.47;;;3.42;;
10403;SDS011;5248;47.374;8.486;2023-07-13T04:14:32;4.15;;;3.78;;
10403;SDS011;5248;47.374;8.486;2023-07-13T04:17:03;4.22;;;3.92;;
10403;SDS011;5248;47.374;8.486;2023-07-13T04:19:30;4.30;;;4.00;;
10403;SDS011;5248;47.374;8.486;2023-07-13T04:21:57;4.13;;;3.83;;
10403;SDS011;5248;47.374;8.486;2023-07-13T04:24:23;4.90;;;4.30;;
10403;SDS011;5248;47.374;8.486;2023-07-13T04:26:50;4.47;;;4.07;;
10403;SDS011;5248;47.374;8.486;2023-07-13T04:29:17;3.47;;;3.25;;
10403;SDS011;5248;47.374;8.486;2023-07-13T04:31:47;3.20;;;2.90;;
10403;SDS011;5248;47.374;8.486;2023-07-13T04:34:14;3.30;;;3.00;;
10403;SDS011;5248;47.374;8.486;2023-07-13T04:36:41;3.08;;;2.80;;
10403;SDS011;5248;47.374;8.486;2023-07-13T04:39:08;3.08;;;2.75;;
10403;SDS011;5248;47.374;8.486;2023-07-13T04:41:35;2.88;;;2.67;;
10403;SDS011;5248;47.374;8.486;2023-07-13T04:44:01;2.88;;;2.67;;
10403;SDS011;5248;47.374;8.486;2023-07-13T04:46:30;3.53;;;2.60;;
10403;SDS011;5248;47.374;8.486;2023-07-13T04:48:59;2.63;;;2.33;;
10403;SDS011;5248;47.374;8.486;2023-07-13T04:51:25;3.10;;;2.90;;
10403;SDS011;5248;47.374;8.486;2023-07-13T04:53:52;3.05;;;2.85;;
10403;SDS011;5248;47.374;8.486;2023-07-13T04:56:19;4.28;;;3.15;;
10403;SDS011;5248;47.374;8.486;2023-07-13T04:58:46;4.43;;;3.78;;
10403;SDS011;5248;47.374;8.486;2023-07-13T05:01:12;3.65;;;3.35;;
10403;SDS011;5248;47.374;8.486;2023-07-13T05:03:39;3.50;;;3.20;;
10403;SDS011;5248;47.374;8.486;2023-07-13T05:06:11;3.22;;;2.92;;
10403;SDS011;5248;47.374;8.486;2023-07-13T05:08:39;2.78;;;2.58;;
10403;SDS011;5248;47.374;8.486;2023-07-13T05:11:05;3.10;;;2.80;;
10403;SDS011;5248;47.374;8.486;2023-07-13T05:13:35;3.08;;;2.63;;
10403;SDS011;5248;47.374;8.486;2023-07-13T05:16:02;3.03;;;2.72;;
10403;SDS011;5248;47.374;8.486;2023-07-13T05:18:33;3.28;;;2.40;;
10403;SDS011;5248;47.374;8.486;2023-07-13T05:21:00;4.53;;;3.10;;
10403;SDS011;5248;47.374;8.486;2023-07-13T05:23:29;3.22;;;3.03;;
10403;SDS011;5248;47.374;8.486;2023-07-13T05:25:56;3.47;;;3.03;;
10403;SDS011;5248;47.374;8.486;2023-07-13T05:28:23;3.20;;;2.97;;
10403;SDS011;5248;47.374;8.486;2023-07-13T05:30:49;3.28;;;3.08;;
10403;SDS011;5248;47.374;8.486;2023-07-13T05:33:19;3.97;;;3.58;;
10403;SDS011;5248;47.374;8.486;2023-07-13T05:35:48;3.88;;;3.47;;
10403;SDS011;5248;47.374;8.486;2023-07-13T05:38:15;5.63;;;3.47;;
10403;SDS011;5248;47.374;8.486;2023-07-13T05:40:43;4.20;;;3.28;;
10403;SDS011;5248;47.374;8.486;2023-07-13T05:43:10;4.00;;;3.60;;
10403;SDS011;5248;47.374;8.486;2023-07-13T05:45:39;3.60;;;3.40;;
10403;SDS011;5248;47.374;8.486;2023-07-13T05:48:06;4.93;;;3.42;;
10403;SDS011;5248;47.374;8.486;2023-07-13T05:50:33;5.40;;;4.50;;
10403;SDS011;5248;47.374;8.486;2023-07-13T05:52:59;4.95;;;3.50;;
10403;SDS011;5248;47.374;8.486;2023-07-13T05:55:28;3.60;;;3.28;;
10403;SDS011;5248;47.374;8.486;2023-07-13T05:57:55;4.72;;;3.25;;
10403;SDS011;5248;47.374;8.486;2023-07-13T06:00:23;5.60;;;3.53;;
10403;SDS011;5248;47.374;8.486;2023-07-13T06:02:50;3.85;;;3.40;;
10403;SDS011;5248;47.374;8.486;2023-07-13T06:05:18;5.45;;;3.58;;
10403;SDS011;5248;47.374;8.486;2023-07-13T06:07:45;4.03;;;3.63;;
10403;SDS011;5248;47.374;8.486;2023-07-13T06:10:11;3.40;;;3.10;;
10403;SDS011;5248;47.374;8.486;2023-07-13T06:12:38;3.53;;;3.33;;
10403;SDS011;5248;47.374;8.486;2023-07-13T06:15:06;3.22;;;2.97;;
10403;SDS011;5248;47.374;8.486;2023-07-13T06:17:34;2.78;;;2.60;;
10403;SDS011;5248;47.374;8.486;2023-07-13T06:20:01;3.03;;;2.83;;
10403;SDS011;5248;47.374;8.486;2023-07-13T06:22:27;3.78;;;2.65;;
10403;SDS011;5248;47.374;8.486;2023-07-13T06:24:54;4.28;;;3.40;;
10403;SDS011;5248;47.374;8.486;2023-07-13T06:27:21;3.03;;;2.90;;
10403;SDS011;5248;47.374;8.486;2023-07-13T06:29:48;5.10;;;2.90;;
10403;SDS011;5248;47.374;8.486;2023-07-13T06:32:17;3.10;;;2.80;;
10403;SDS011;5248;47.374;8.486;2023-07-13T06:34:43;3.63;;;3.33;;
10403;SDS011;5248;47.374;8.486;2023-07-13T06:37:10;5.82;;;3.30;;
10403;SDS011;5248;47.374;8.486;2023-07-13T06:39:36;3.00;;;2.83;;
10403;SDS011;5248;47.374;8.486;2023-07-13T06:42:03;3.35;;;3.05;;
10403;SDS011;5248;47.374;8.486;2023-07-13T06:44:31;3.60;;;3.30;;
10403;SDS011;5248;47.374;8.486;2023-07-13T06:47:03;3.75;;;3.45;;
10403;SDS011;5248;47.374;8.486;2023-07-13T06:49:31;3.83;;;3.40;;
10403;SDS011;5248;47.374;8.486;2023-07-13T06:51:58;3.10;;;2.90;;
10403;SDS011;5248;47.374;8.486;2023-07-13T06:54:26;3.80;;;3.50;;
10403;SDS011;5248;47.374;8.486;2023-07-13T06:56:53;4.68;;;3.03;;
10403;SDS011;5248;47.374;8.486;2023-07-13T06:59:19;3.13;;;2.92;;
10403;SDS011;5248;47.374;8.486;2023-07-13T07:01:48;4.30;;;3.13;;
10403;SDS011;5248;47.374;8.486;2023-07-13T07:04:15;2.97;;;2.78;;
10403;SDS011;5248;47.374;8.486;2023-07-13T07:06:43;3.50;;;3.20;;
10403;SDS011;5248;47.374;8.486;2023-07-13T07:09:09;3.22;;;3.03;;
10403;SDS011;5248;47.374;8.486;2023-07-13T07:11:36;3.17;;;2.88;;
10403;SDS011;5248;47.374;8.486;2023-07-13T07:14:03;2.95;;;2.75;;
10403;SDS011;5248;47.374;8.486;2023-07-13T07:16:31;4.38;;;3.10;;
10403;SDS011;5248;47.374;8.486;2023-07-13T07:18:57;3.42;;;3.00;;
10403;SDS011;5248;47.374;8.486;2023-07-13T07:21:25;3.03;;;2.83;;
10403;SDS011;5248;47.374;8.486;2023-07-13T07:23:53;2.83;;;2.63;;
10403;SDS011;5248;47.374;8.486;2023-07-13T07:26:22;3.72;;;2.88;;
10403;SDS011;5248;47.374;8.486;2023-07-13T07:28:50;3.05;;;2.83;;
10403;SDS011;5248;47.374;8.486;2023-07-13T07:31:17;2.70;;;2.50;;
10403;SDS011;5248;47.374;8.486;2023-07-13T07:33:43;2.45;;;2.25;;
10403;SDS011;5248;47.374;8.486;2023-07-13T07:36:10;2.42;;;2.22;;
10403;SDS011;5248;47.374;8.486;2023-07-13T07:38:36;2.28;;;2.17;;
10403;SDS011;5248;47.374;8.486;2023-07-13T07:41:05;2.03;;;1.92;;
10403;SDS011;5248;47.374;8.486;2023-07-13T07:43:32;2.00;;;1.88;;
10403;SDS011;5248;47.374;8.486;2023-07-13T07:45:59;1.70;;;1.60;;
10403;SDS011;5248;47.374;8.486;2023-07-13T07:48:25;2.72;;;1.95;;
10403;SDS011;5248;47.374;8.486;2023-07-13T07:50:52;2.85;;;2.65;;
10403;SDS011;5248;47.374;8.486;2023-07-13T07:53:19;2.40;;;2.30;;
10403;SDS011;5248;47.374;8.486;2023-07-13T07:55:45;2.42;;;2.08;;
10403;SDS011;5248;47.374;8.486;2023-07-13T07:58:14;1.85;;;1.75;;
10403;SDS011;5248;47.374;8.486;2023-07-13T08:00:40;2.30;;;2.20;;
10403;SDS011;5248;47.374;8.486;2023-07-13T08:03:07;2.33;;;2.22;;
10403;SDS011;5248;47.374;8.486;2023-07-13T08:05:34;2.25;;;2.00;;
10403;SDS011;5248;47.374;8.486;2023-07-13T08:08:01;3.88;;;2.63;;
10403;SDS011;5248;47.374;8.486;2023-07-13T08:10:28;2.28;;;2.08;;
10403;SDS011;5248;47.374;8.486;2023-07-13T08:12:54;1.88;;;1.77;;
10403;SDS011;5248;47.374;8.486;2023-07-13T08:15:22;2.80;;;1.80;;
10403;SDS011;5248;47.374;8.486;2023-07-13T08:17:49;2.80;;;1.63;;
10403;SDS011;5248;47.374;8.486;2023-07-13T08:20:16;2.05;;;1.95;;
10403;SDS011;5248;47.374;8.486;2023-07-13T08:22:43;1.55;;;1.45;;
10403;SDS011;5248;47.374;8.486;2023-07-13T08:25:09;1.70;;;1.60;;
10403;SDS011;5248;47.374;8.486;2023-07-13T08:27:36;2.13;;;1.70;;
10403;SDS011;5248;47.374;8.486;2023-07-13T08:30:02;1.70;;;1.60;;
10403;SDS011;5248;47.374;8.486;2023-07-13T08:32:32;1.92;;;1.83;;
10403;SDS011;5248;47.374;8.486;2023-07-13T08:34:59;2.22;;;1.33;;
10403;SDS011;5248;47.374;8.486;2023-07-13T08:37:25;2.00;;;1.80;;
10403;SDS011;5248;47.374;8.486;2023-07-13T08:39:52;1.63;;;1.52;;
10403;SDS011;5248;47.374;8.486;2023-07-13T08:42:22;1.60;;;1.50;;
10403;SDS011;5248;47.374;8.486;2023-07-13T08:45:01;1.88;;;1.77;;
10403;SDS011;5248;47.374;8.486;2023-07-13T08:47:39;2.60;;;1.80;;
10403;SDS011;5248;47.374;8.486;2023-07-13T08:50:09;1.77;;;1.67;;
10403;SDS011;5248;47.374;8.486;2023-07-13T08:52:38;3.15;;;1.95;;
10403;SDS011;5248;47.374;8.486;2023-07-13T08:55:09;2.17;;;1.98;;
10403;SDS011;5248;47.374;8.486;2023-07-13T08:57:39;3.00;;;2.00;;
10403;SDS011;5248;47.374;8.486;2023-07-13T09:00:09;1.80;;;1.70;;
10403;SDS011;5248;47.374;8.486;2023-07-13T09:02:40;2.33;;;1.90;;
10403;SDS011;5248;47.374;8.486;2023-07-13T09:05:10;1.83;;;1.73;;
10403;SDS011;5248;47.374;8.486;2023-07-13T09:07:40;2.20;;;2.10;;
10403;SDS011;5248;47.374;8.486;2023-07-13T09:10:14;7.25;;;6.43;;
10403;SDS011;5248;47.374;8.486;2023-07-13T09:12:45;2.85;;;2.22;;
10403;SDS011;5248;47.374;8.486;2023-07-13T09:15:20;2.33;;;2.22;;
10403;SDS011;5248;47.374;8.486;2023-07-13T09:17:51;2.63;;;1.98;;
10403;SDS011;5248;47.374;8.486;2023-07-13T09:20:22;3.42;;;2.13;;
10403;SDS011;5248;47.374;8.486;2023-07-13T09:22:51;2.53;;;2.08;;
10403;SDS011;5248;47.374;8.486;2023-07-13T09:25:23;2.75;;;2.40;;
10403;SDS011;5248;47.374;8.486;2023-07-13T09:27:55;3.35;;;2.10;;
10403;SDS011;5248;47.374;8.486;2023-07-13T09:30:27;3.03;;;2.22;;
10403;SDS011;5248;47.374;8.486;2023-07-13T09:33:01;3.20;;;2.00;;
10403;SDS011;5248;47.374;8.486;2023-07-13T09:35:28;2.55;;;2.08;;
10403;SDS011;5248;47.374;8.486;2023-07-13T09:37:58;2.10;;;2.00;;
10403;SDS011;5248;47.374;8.486;2023-07-13T09:40:30;2.10;;;1.85;;
10403;SDS011;5248;47.374;8.486;2023-07-13T09:43:03;3.65;;;2.47;;
10403;SDS011;5248;47.374;8.486;2023-07-13T09:45:30;1.98;;;1.88;;
10403;SDS011;5248;47.374;8.486;2023-07-13T09:48:04;3.13;;;2.30;;
10403;SDS011;5248;47.374;8.486;2023-07-13T09:50:31;2.33;;;2.22;;
10403;SDS011;5248;47.374;8.486;2023-07-13T09:53:02;2.47;;;2.28;;
10403;SDS011;5248;47.374;8.486;2023-07-13T09:55:30;3.85;;;2.17;;
10403;SDS011;5248;47.374;8.486;2023-07-13T09:58:03;2.50;;;2.30;;
10403;SDS011;5248;47.374;8.486;2023-07-13T10:00:32;2.20;;;2.08;;
10403;SDS011;5248;47.374;8.486;2023-07-13T10:03:02;5.03;;;2.25;;
10403;SDS011;5248;47.374;8.486;2023-07-13T10:05:39;2.55;;;2.00;;
10403;SDS011;5248;47.374;8.486;2023-07-13T10:08:14;3.10;;;2.40;;
10403;SDS011;5248;47.374;8.486;2023-07-13T10:10:43;3.28;;;2.00;;
10403;SDS011;5248;47.374;8.486;2023-07-13T10:13:20;2.30;;;2.15;;
10403;SDS011;5248;47.374;8.486;2023-07-13T10:15:51;3.85;;;2.47;;
10403;SDS011;5248;47.374;8.486;2023-07-13T10:18:19;2.67;;;2.50;;
10403;SDS011;5248;47.374;8.486;2023-07-13T10:20:47;3.13;;;2.10;;
10403;SDS011;5248;47.374;8.486;2023-07-13T10:23:15;4.70;;;4.30;;
10403;SDS011;5248;47.374;8.486;2023-07-13T10:25:47;4.43;;;3.28;;
10403;SDS011;5248;47.374;8.486;2023-07-13T10:28:20;2.70;;;2.50;;
10403;SDS011;5248;47.374;8.486;2023-07-13T10:30:51;5.20;;;4.70;;
10403;SDS011;5248;47.374;8.486;2023-07-13T10:33:21;3.15;;;2.85;;
10403;SDS011;5248;47.374;8.486;2023-07-13T10:35:48;2.40;;;2.30;;
10403;SDS011;5248;47.374;8.486;2023-07-13T10:38:18;2.80;;;2.28;;
10403;SDS011;5248;47.374;8.486;2023-07-13T10:40:48;3.42;;;2.17;;
10403;SDS011;5248;47.374;8.486;2023-07-13T10:43:20;1.85;;;1.73;;
10403;SDS011;5248;47.374;8.486;2023-07-13T10:45:49;2.85;;;2.50;;
10403;SDS011;5248;47.374;8.486;2023-07-13T10:48:17;2.10;;;2.00;;
10403;SDS011;5248;47.374;8.486;2023-07-13T10:50:45;2.20;;;2.10;;
10403;SDS011;5248;47.374;8.486;2023-07-13T10:53:17;2.67;;;2.20;;
10403;SDS011;5248;47.374;8.486;2023-07-13T10:55:54;4.22;;;2.45;;
10403;SDS011;5248;47.374;8.486;2023-07-13T10:58:28;3.50;;;2.20;;
10403;SDS011;5248;47.374;8.486;2023-07-13T11:01:01;2.60;;;2.13;;
10403;SDS011;5248;47.374;8.486;2023-07-13T11:03:30;3.90;;;2.40;;
10403;SDS011;5248;47.374;8.486;2023-07-13T11:06:07;1.85;;;1.75;;
10403;SDS011;5248;47.374;8.486;2023-07-13T11:08:36;3.05;;;1.77;;
10403;SDS011;5248;47.374;8.486;2023-07-13T11:11:05;2.38;;;2.13;;
10403;SDS011;5248;47.374;8.486;2023-07-13T11:14:00;2.55;;;2.00;;
10403;SDS011;5248;47.374;8.486;2023-07-13T11:16:43;3.17;;;1.80;;
10403;SDS011;5248;47.374;8.486;2023-07-13T11:19:26;2.55;;;1.40;;
10403;SDS011;5248;47.374;8.486;2023-07-13T11:22:01;1.70;;;1.60;;
10403;SDS011;5248;47.374;8.486;2023-07-13T11:24:29;1.75;;;1.52;;
10403;SDS011;5248;47.374;8.486;2023-07-13T11:27:19;2.22;;;1.65;;
10403;SDS011;5248;47.374;8.486;2023-07-13T11:29:50;1.95;;;1.75;;
10403;SDS011;5248;47.374;8.486;2023-07-13T11:32:23;2.10;;;1.40;;
10403;SDS011;5248;47.374;8.486;2023-07-13T11:34:51;3.30;;;1.83;;
10403;SDS011;5248;47.374;8.486;2023-07-13T11:37:19;2.92;;;1.90;;
10403;SDS011;5248;47.374;8.486;2023-07-13T11:39:46;4.82;;;4.43;;
10403;SDS011;5248;47.374;8.486;2023-07-13T11:42:15;2.42;;;2.30;;
10403;SDS011;5248;47.374;8.486;2023-07-13T11:44:43;2.05;;;1.80;;
10403;SDS011;5248;47.374;8.486;2023-07-13T11:47:17;3.25;;;3.00;;
10403;SDS011;5248;47.374;8.486;2023-07-13T11:49:48;2.80;;;2.38;;
10403;SDS011;5248;47.374;8.486;2023-07-13T11:52:18;1.92;;;1.83;;
10403;SDS011;5248;47.374;8.486;2023-07-13T11:54:53;2.20;;;2.00;;
10403;SDS011;5248;47.374;8.486;2023-07-13T11:57:23;3.10;;;2.60;;
10403;SDS011;5248;47.374;8.486;2023-07-13T11:59:52;2.78;;;2.55;;
10403;SDS011;5248;47.374;8.486;2023-07-13T12:02:23;1.60;;;1.40;;
10403;SDS011;5248;47.374;8.486;2023-07-13T12:04:53;4.28;;;2.20;;
10403;SDS011;5248;47.374;8.486;2023-07-13T12:07:20;1.80;;;1.70;;
10403;SDS011;5248;47.374;8.486;2023-07-13T12:09:46;2.35;;;2.15;;
10403;SDS011;5248;47.374;8.486;2023-07-13T12:12:17;3.53;;;2.30;;
10403;SDS011;5248;47.374;8.486;2023-07-13T12:14:50;3.00;;;2.80;;
10403;SDS011;5248;47.374;8.486;2023-07-13T12:17:18;2.58;;;2.25;;
10403;SDS011;5248;47.374;8.486;2023-07-13T12:19:48;4.38;;;2.17;;
10403;SDS011;5248;47.374;8.486;2023-07-13T12:22:15;9.57;;;3.10;;
10403;SDS011;5248;47.374;8.486;2023-07-13T12:24:43;3.95;;;2.30;;
10403;SDS011;5248;47.374;8.486;2023-07-13T12:27:18;1.70;;;1.60;;
10403;SDS011;5248;47.374;8.486;2023-07-13T12:29:51;1.90;;;1.80;;
10403;SDS011;5248;47.374;8.486;2023-07-13T12:32:18;1.83;;;1.70;;
10403;SDS011;5248;47.374;8.486;2023-07-13T12:34:53;1.70;;;1.60;;
10403;SDS011;5248;47.374;8.486;2023-07-13T12:37:21;1.88;;;1.77;;
10403;SDS011;5248;47.374;8.486;2023-07-13T12:39:48;1.70;;;1.60;;
10403;SDS011;5248;47.374;8.486;2023-07-13T12:42:19;1.95;;;1.83;;
10403;SDS011;5248;47.374;8.486;2023-07-13T12:44:49;2.00;;;1.90;;
10403;SDS011;5248;47.374;8.486;2023-07-13T12:47:16;2.92;;;1.83;;
10403;SDS011;5248;47.374;8.486;2023-07-13T12:49:47;1.83;;;1.73;;
10403;SDS011;5248;47.374;8.486;2023-07-13T12:52:17;2.55;;;1.50;;
10403;SDS011;5248;47.374;8.486;2023-07-13T12:54:53;2.50;;;1.70;;
10403;SDS011;5248;47.374;8.486;2023-07-13T12:57:22;5.32;;;1.70;;
10403;SDS011;5248;47.374;8.486;2023-07-13T12:59:51;3.40;;;1.77;;
10403;SDS011;5248;47.374;8.486;2023-07-13T13:02:21;1.70;;;1.60;;
10403;SDS011;5248;47.374;8.486;2023-07-13T13:04:52;3.03;;;1.88;;
10403;SDS011;5248;47.374;8.486;2023-07-13T13:07:22;2.08;;;1.88;;
10403;SDS011;5248;47.374;8.486;2023-07-13T13:09:49;2.40;;;1.92;;
10403;SDS011;5248;47.374;8.486;2023-07-13T13:12:18;1.85;;;1.75;;
10403;SDS011;5248;47.374;8.486;2023-07-13T13:14:45;1.90;;;1.80;;
10403;SDS011;5248;47.374;8.486;2023-07-13T13:17:16;2.38;;;1.80;;
10403;SDS011;5248;47.374;8.486;2023-07-13T13:19:45;4.00;;;1.95;;
10403;SDS011;5248;47.374;8.486;2023-07-13T13:22:11;4.00;;;2.50;;
10403;SDS011;5248;47.374;8.486;2023-07-13T13:24:40;9.00;;;7.38;;
10403;SDS011;5248;47.374;8.486;2023-07-13T13:27:08;4.05;;;3.67;;
10403;SDS011;5248;47.374;8.486;2023-07-13T13:29:39;2.92;;;2.13;;
10403;SDS011;5248;47.374;8.486;2023-07-13T13:32:08;2.50;;;2.30;;
10403;SDS011;5248;47.374;8.486;2023-07-13T13:34:38;2.70;;;2.50;;
10403;SDS011;5248;47.374;8.486;2023-07-13T13:37:04;2.67;;;2.47;;
10403;SDS011;5248;47.374;8.486;2023-07-13T13:39:40;2.30;;;1.98;;
10403;SDS011;5248;47.374;8.486;2023-07-13T13:42:08;1.77;;;1.67;;
10403;SDS011;5248;47.374;8.486;2023-07-13T13:44:35;1.90;;;1.80;;
10403;SDS011;5248;47.374;8.486;2023-07-13T13:47:03;2.58;;;2.05;;
10403;SDS011;5248;47.374;8.486;2023-07-13T13:49:29;1.70;;;1.60;;
10403;SDS011;5248;47.374;8.486;2023-07-13T13:51:56;2.03;;;1.70;;
10403;SDS011;5248;47.374;8.486;2023-07-13T13:54:25;4.55;;;1.80;;
10403;SDS011;5248;47.374;8.486;2023-07-13T13:56:55;1.88;;;1.77;;
10403;SDS011;5248;47.374;8.486;2023-07-13T13:59:23;1.98;;;1.83;;
10403;SDS011;5248;47.374;8.486;2023-07-13T14:01:51;1.80;;;1.70;;
10403;SDS011;5248;47.374;8.486;2023-07-13T14:04:19;2.45;;;1.80;;
10403;SDS011;5248;47.374;8.486;2023-07-13T14:06:47;4.10;;;1.80;;
10403;SDS011;5248;47.374;8.486;2023-07-13T14:09:14;2.10;;;1.88;;
10403;SDS011;5248;47.374;8.486;2023-07-13T14:11:45;1.98;;;1.75;;
10403;SDS011;5248;47.374;8.486;2023-07-13T14:14:19;1.67;;;1.58;;
10403;SDS011;5248;47.374;8.486;2023-07-13T14:16:49;1.88;;;1.77;;
10403;SDS011;5248;47.374;8.486;2023-07-13T14:19:18;2.28;;;2.08;;
10403;SDS011;5248;47.374;8.486;2023-07-13T14:21:45;1.83;;;1.73;;
10403;SDS011;5248;47.374;8.486;2023-07-13T14:24:15;1.50;;;1.40;;
10403;SDS011;5248;47.374;8.486;2023-07-13T14:26:43;4.25;;;2.00;;
10403;SDS011;5248;47.374;8.486;2023-07-13T14:29:12;3.53;;;2.80;;
10403;SDS011;5248;47.374;8.486;2023-07-13T14:31:43;4.20;;;2.35;;
10403;SDS011;5248;47.374;8.486;2023-07-13T14:34:10;2.40;;;2.20;;
10403;SDS011;5248;47.374;8.486;2023-07-13T14:36:39;1.83;;;1.73;;
10403;SDS011;5248;47.374;8.486;2023-07-13T14:39:11;1.90;;;1.77;;
10403;SDS011;5248;47.374;8.486;2023-07-13T14:41:38;2.47;;;1.80;;
10403;SDS011;5248;47.374;8.486;2023-07-13T14:44:08;2.58;;;1.98;;
10403;SDS011;5248;47.374;8.486;2023-07-13T14:46:39;2.35;;;2.00;;
10403;SDS011;5248;47.374;8.486;2023-07-13T14:49:09;3.03;;;1.95;;
10403;SDS011;5248;47.374;8.486;2023-07-13T14:51:40;3.88;;;1.85;;
10403;SDS011;5248;47.374;8.486;2023-07-13T14:54:08;1.90;;;1.80;;
10403;SDS011;5248;47.374;8.486;2023-07-13T14:56:34;2.13;;;1.90;;
10403;SDS011;5248;47.374;8.486;2023-07-13T14:59:01;1.85;;;1.70;;
10403;SDS011;5248;47.374;8.486;2023-07-13T15:01:27;1.60;;;1.50;;
10403;SDS011;5248;47.374;8.486;2023-07-13T15:03:57;4.78;;;3.80;;
10403;SDS011;5248;47.374;8.486;2023-07-13T15:06:25;3.30;;;2.95;;
10403;SDS011;5248;47.374;8.486;2023-07-13T15:08:55;3.35;;;3.10;;